Time;durP1;ratioP1;P1;durP2;ratioP2;P2;SDS_P1;SDS_P2;PMS_P1;PMS_P2;Temp;Humidity;BMP_temperature;BMP_pressure;BME280_temperature;BME280_humidity;BME280_pressure;Samples;Min_cycle;Max_cycle;Signal;HPM_P1;HPM_P2
2023/04/21 00:01:54;;;;;;;33.30;25.33;;;9.00;1.00;;;;;;5016612;28;20192;-67
2023/04/21 00:04:21;;;;;;;31.63;25.23;;;9.00;1.00;;;;;;5053526;28;20360;-67
2023/04/21 00:06:49;;;;;;;33.83;25.77;;;8.90;1.00;;;;;;5057278;28;20264;-66
2023/04/21 00:09:17;;;;;;;35.50;26.90;;;8.90;1.00;;;;;;5056625;28;20320;-67
2023/04/21 00:11:44;;;;;;;33.83;26.10;;;9.00;1.00;;;;;;5053790;28;20203;-66
2023/04/21 00:14:11;;;;;;;36.77;26.27;;;9.00;1.00;;;;;;5078927;28;20269;-66
2023/04/21 00:16:38;;;;;;;32.07;25.00;;;9.10;1.00;;;;;;5073893;28;20786;-67
2023/04/21 00:19:07;;;;;;;32.13;25.50;;;9.10;1.00;;;;;;5053521;28;20198;-67
2023/04/21 00:21:35;;;;;;;35.13;25.40;;;9.10;1.00;;;;;;5068195;28;20282;-66
2023/04/21 00:24:02;;;;;;;33.07;26.43;;;9.10;1.00;;;;;;5065743;28;20229;-67
2023/04/21 00:26:29;;;;;;;35.30;27.13;;;9.10;1.00;;;;;;5064596;28;20283;-67
2023/04/21 00:28:56;;;;;;;36.53;28.03;;;9.20;1.00;;;;;;5067113;28;20211;-67
2023/04/21 00:31:23;;;;;;;35.07;26.53;;;9.20;1.00;;;;;;5048376;28;20245;-68
2023/04/21 00:33:50;;;;;;;34.27;26.57;;;9.30;1.00;;;;;;5064880;28;22040;-67
2023/04/21 00:36:20;;;;;;;32.07;25.77;;;9.20;1.00;;;;;;5067101;28;20183;-69
2023/04/21 00:38:47;;;;;;;36.40;26.63;;;9.30;1.00;;;;;;5050332;28;20222;-68
2023/04/21 00:41:14;;;;;;;33.47;26.50;;;9.30;1.00;;;;;;5033850;28;20203;-68
2023/04/21 00:44:00;;;;;;;32.50;24.70;;;9.30;1.00;;;;;;5046490;28;20198;-68
2023/04/21 00:46:30;;;;;;;33.27;25.43;;;9.30;1.00;;;;;;5049478;28;20253;-67
2023/04/21 00:48:58;;;;;;;33.83;26.03;;;9.30;1.00;;;;;;5044809;28;20790;-68
2023/04/21 00:51:27;;;;;;;34.33;26.97;;;9.30;1.00;;;;;;5044693;28;20214;-68
2023/04/21 00:53:55;;;;;;;33.87;25.67;;;9.30;1.00;;;;;;5051520;28;20190;-68
2023/04/21 00:56:23;;;;;;;34.43;26.20;;;9.20;1.00;;;;;;5049459;28;20191;-68
2023/04/21 00:58:52;;;;;;;31.40;25.73;;;9.20;1.00;;;;;;5067809;28;20547;-68
2023/04/21 01:01:20;;;;;;;34.67;24.93;;;9.20;1.00;;;;;;5065513;28;20208;-67
2023/04/21 01:03:49;;;;;;;42.37;26.27;;;9.20;1.00;;;;;;5058115;28;20432;-68
2023/04/21 01:06:17;;;;;;;31.13;25.57;;;9.20;1.00;;;;;;5052913;28;20197;-68
2023/04/21 01:08:45;;;;;;;34.20;26.80;;;9.20;1.00;;;;;;5058392;28;20191;-67
2023/04/21 01:11:14;;;;;;;35.10;26.03;;;9.20;1.00;;;;;;5039176;28;20763;-68
2023/04/21 01:13:41;;;;;;;35.67;27.10;;;9.20;1.00;;;;;;5060187;28;20219;-68
2023/04/21 01:16:15;;;;;;;33.63;26.33;;;9.20;1.00;;;;;;5049316;28;20179;-67
2023/04/21 01:18:43;;;;;;;34.43;27.40;;;9.20;1.00;;;;;;5056298;28;20191;-68
2023/04/21 01:21:13;;;;;;;35.87;26.43;;;9.20;1.00;;;;;;5048816;28;20290;-68
2023/04/21 01:23:40;;;;;;;34.10;26.97;;;9.20;1.00;;;;;;5049272;28;20292;-67
2023/04/21 01:26:07;;;;;;;33.90;27.00;;;9.20;1.00;;;;;;5054399;28;20670;-68
2023/04/21 01:28:36;;;;;;;32.33;26.87;;;9.20;1.00;;;;;;5049527;28;20554;-67
2023/04/21 01:31:04;;;;;;;32.17;27.77;;;9.20;1.00;;;;;;5031892;28;20219;-68
2023/04/21 01:33:31;;;;;;;33.07;27.23;;;9.30;1.00;;;;;;5041259;28;20587;-67
2023/04/21 01:36:00;;;;;;;33.60;27.40;;;9.30;1.00;;;;;;5045808;28;20195;-69
2023/04/21 01:38:27;;;;;;;35.57;27.40;;;9.30;1.00;;;;;;5050984;28;20659;-70
2023/04/21 01:40:58;;;;;;;34.67;27.33;;;9.40;1.00;;;;;;5061434;28;20241;-69
2023/04/21 01:43:26;;;;;;;31.67;26.80;;;9.40;1.00;;;;;;5034012;28;20195;-69
2023/04/21 01:45:53;;;;;;;34.53;27.87;;;9.40;1.00;;;;;;5053386;28;20268;-71
2023/04/21 01:48:20;;;;;;;38.20;28.30;;;9.50;1.00;;;;;;5048984;28;20195;-69
2023/04/21 01:50:47;;;;;;;35.83;27.67;;;9.50;1.00;;;;;;5059103;28;20229;-69
2023/04/21 01:53:14;;;;;;;35.37;28.93;;;9.50;1.00;;;;;;5043047;28;20226;-68
2023/04/21 01:55:41;;;;;;;34.93;28.40;;;9.50;1.00;;;;;;5055622;28;20218;-68
2023/04/21 01:58:09;;;;;;;33.97;26.73;;;9.40;1.00;;;;;;5024135;28;20199;-68
2023/04/21 02:00:36;;;;;;;33.90;27.03;;;9.40;1.00;;;;;;5030751;28;20219;-68
2023/04/21 02:03:04;;;;;;;31.53;26.87;;;9.50;1.00;;;;;;5061486;28;20222;-68
2023/04/21 02:05:31;;;;;;;33.40;26.40;;;9.50;1.00;;;;;;5032840;28;20200;-69
2023/04/21 02:07:58;;;;;;;35.50;26.80;;;9.50;1.00;;;;;;5038443;28;20230;-69
2023/04/21 02:10:25;;;;;;;33.97;27.30;;;9.50;1.00;;;;;;5055825;28;20278;-69
2023/04/21 02:12:52;;;;;;;35.63;27.77;;;9.50;1.00;;;;;;5052352;28;20218;-69
2023/04/21 02:15:19;;;;;;;34.17;26.87;;;9.50;1.00;;;;;;5025441;28;20200;-66
2023/04/21 02:17:46;;;;;;;33.23;26.27;;;9.60;1.00;;;;;;5037253;28;20187;-66
2023/04/21 02:20:13;;;;;;;33.07;25.70;;;9.60;1.00;;;;;;5054673;28;20186;-66
2023/04/21 02:22:40;;;;;;;34.20;27.80;;;9.60;1.00;;;;;;5037497;28;20265;-66
2023/04/21 02:25:07;;;;;;;34.17;26.23;;;9.60;1.00;;;;;;5051862;28;20200;-69
2023/04/21 02:27:34;;;;;;;32.83;26.23;;;9.70;1.00;;;;;;5063139;28;20207;-70
2023/04/21 02:30:01;;;;;;;33.60;26.83;;;9.70;1.00;;;;;;5042161;28;20187;-69
2023/04/21 02:32:28;;;;;;;32.10;25.43;;;9.70;1.00;;;;;;5026743;28;20215;-70
2023/04/21 02:34:55;;;;;;;34.57;27.60;;;9.70;1.00;;;;;;5030925;28;20207;-69
2023/04/21 02:37:23;;;;;;;32.73;26.07;;;9.70;1.00;;;;;;5031036;28;20227;-70
2023/04/21 02:39:52;;;;;;;32.07;26.47;;;9.70;1.00;;;;;;5048423;28;20187;-70
2023/04/21 02:42:19;;;;;;;35.27;25.90;;;9.70;1.00;;;;;;5049694;28;20671;-69
2023/04/21 02:44:47;;;;;;;30.00;24.50;;;9.80;1.00;;;;;;5041058;28;20271;-69
2023/04/21 02:47:15;;;;;;;35.77;25.57;;;9.80;1.00;;;;;;5051348;28;20544;-69
2023/04/21 02:49:44;;;;;;;31.50;25.00;;;9.70;1.00;;;;;;5066844;28;20205;-69
2023/04/21 02:52:11;;;;;;;33.30;25.67;;;9.80;1.00;;;;;;5056056;28;20306;-69
2023/04/21 02:54:38;;;;;;;30.67;24.57;;;9.80;1.00;;;;;;5053812;28;20650;-72
2023/04/21 02:57:05;;;;;;;36.23;25.37;;;9.80;1.00;;;;;;5048627;28;20192;-70
2023/04/21 02:59:32;;;;;;;32.10;24.13;;;9.90;1.00;;;;;;5040588;28;20928;-69
2023/04/21 03:01:59;;;;;;;29.77;23.97;;;9.90;1.00;;;;;;5041438;28;20249;-70
2023/04/21 03:04:26;;;;;;;33.97;25.93;;;9.90;1.00;;;;;;5043134;28;20695;-70
2023/04/21 03:06:54;;;;;;;33.27;26.20;;;9.70;1.00;;;;;;5050753;28;20191;-69
2023/04/21 03:09:21;;;;;;;32.90;27.03;;;9.70;1.00;;;;;;5035396;28;20278;-70
2023/04/21 03:11:48;;;;;;;32.67;24.30;;;9.70;1.00;;;;;;5032633;28;20251;-70
2023/04/21 03:14:14;;;;;;;33.40;26.07;;;9.60;1.00;;;;;;5030354;28;20188;-70
2023/04/21 03:16:42;;;;;;;36.00;26.97;;;9.60;1.00;;;;;;5050777;28;20194;-69
2023/04/21 03:19:11;;;;;;;32.23;25.93;;;9.60;1.00;;;;;;5045515;28;20274;-69
2023/04/21 03:21:38;;;;;;;31.70;25.03;;;9.60;1.00;;;;;;5051003;28;20195;-67
2023/04/21 03:24:06;;;;;;;34.07;26.50;;;9.60;1.00;;;;;;5026943;28;20250;-67
2023/04/21 03:26:33;;;;;;;32.30;25.93;;;9.60;1.00;;;;;;5036808;28;20242;-68
2023/04/21 03:29:00;;;;;;;34.43;25.73;;;9.70;1.00;;;;;;5038331;28;20202;-68
2023/04/21 03:31:27;;;;;;;36.97;27.07;;;9.70;1.00;;;;;;5017781;28;20215;-67
2023/04/21 03:33:55;;;;;;;32.37;24.30;;;9.70;1.00;;;;;;5034194;28;20230;-68
2023/04/21 03:36:23;;;;;;;34.00;24.93;;;9.70;1.00;;;;;;5036731;28;20265;-68
2023/04/21 03:38:50;;;;;;;28.47;23.13;;;9.80;1.00;;;;;;5052489;28;20214;-68
2023/04/21 03:41:17;;;;;;;33.00;24.87;;;9.90;1.00;;;;;;5032716;28;20227;-68
2023/04/21 03:43:44;;;;;;;32.27;24.73;;;9.90;1.00;;;;;;5053315;28;20199;-67
2023/04/21 03:46:21;;;;;;;31.97;24.60;;;9.90;1.00;;;;;;5053490;28;20183;-67
2023/04/21 03:48:48;;;;;;;32.53;23.60;;;9.90;1.00;;;;;;5048052;28;21430;-67
2023/04/21 03:51:15;;;;;;;31.43;24.00;;;9.90;1.00;;;;;;5052564;28;20286;-69
2023/04/21 03:53:42;;;;;;;34.10;23.63;;;10.00;1.00;;;;;;5048349;28;20565;-69
2023/04/21 03:56:09;;;;;;;31.13;23.10;;;9.90;1.00;;;;;;5051979;28;20271;-69
2023/04/21 03:58:36;;;;;;;32.67;23.97;;;10.00;1.00;;;;;;5032440;28;20195;-68
2023/04/21 04:01:06;;;;;;;32.30;25.40;;;10.00;1.00;;;;;;5048612;28;20302;-69
2023/04/21 04:03:33;;;;;;;31.30;23.43;;;10.00;1.00;;;;;;5057558;28;20308;-69
2023/04/21 04:06:02;;;;;;;27.80;22.60;;;10.00;1.00;;;;;;5053417;28;20196;-68
2023/04/21 04:08:30;;;;;;;32.43;23.63;;;10.00;1.00;;;;;;5042239;28;20226;-68
2023/04/21 04:10:57;;;;;;;35.13;22.87;;;10.00;1.00;;;;;;5050391;28;20221;-68
2023/04/21 04:13:25;;;;;;;32.27;24.03;;;10.00;1.00;;;;;;5052406;28;20235;-68
2023/04/21 04:15:52;;;;;;;31.43;24.03;;;10.10;1.00;;;;;;5046372;28;20218;-68
2023/04/21 04:18:21;;;;;;;31.63;23.47;;;10.00;1.00;;;;;;5054477;28;20279;-67
2023/04/21 04:20:48;;;;;;;32.57;23.50;;;10.00;1.00;;;;;;5050116;28;20195;-68
2023/04/21 04:23:15;;;;;;;34.97;24.17;;;10.00;1.00;;;;;;5046890;28;20203;-67
2023/04/21 04:25:42;;;;;;;30.63;22.33;;;10.10;1.00;;;;;;5046412;28;20613;-67
2023/04/21 04:28:09;;;;;;;31.33;23.33;;;10.10;1.00;;;;;;5054965;28;20191;-68
2023/04/21 04:30:36;;;;;;;31.77;24.03;;;10.10;1.00;;;;;;5029618;28;20204;-68
2023/04/21 04:33:03;;;;;;;30.10;23.17;;;10.10;1.00;;;;;;5056297;28;20207;-68
2023/04/21 04:35:30;;;;;;;31.80;23.33;;;10.10;1.00;;;;;;5057811;28;20204;-68
2023/04/21 04:37:58;;;;;;;31.00;23.17;;;10.20;1.00;;;;;;5044460;28;20194;-67
2023/04/21 04:40:25;;;;;;;30.27;23.23;;;10.20;1.00;;;;;;5040455;28;20589;-68
2023/04/21 04:42:55;;;;;;;30.17;22.30;;;10.20;1.00;;;;;;5053544;28;20246;-68
2023/04/21 04:45:22;;;;;;;31.63;22.83;;;10.20;1.00;;;;;;5062118;28;20558;-69
2023/04/21 04:47:49;;;;;;;30.53;22.13;;;10.20;1.00;;;;;;5051539;28;20192;-70
2023/04/21 04:50:16;;;;;;;27.47;22.10;;;10.20;1.00;;;;;;5054088;28;20225;-70
2023/04/21 04:52:45;;;;;;;30.33;22.97;;;10.30;1.00;;;;;;5018508;28;20260;-69
2023/04/21 04:55:13;;;;;;;32.67;22.70;;;10.30;1.00;;;;;;5031977;28;20302;-70
2023/04/21 04:57:40;;;;;;;29.47;21.90;;;10.30;1.00;;;;;;5061612;28;20226;-70
2023/04/21 05:00:13;;;;;;;28.43;22.17;;;10.30;1.00;;;;;;5032798;28;20214;-70
2023/04/21 05:02:40;;;;;;;34.07;22.43;;;10.30;1.00;;;;;;5051764;28;20805;-69
2023/04/21 05:05:07;;;;;;;31.67;21.93;;;10.30;1.00;;;;;;5038519;28;20199;-69
2023/04/21 05:07:35;;;;;;;31.37;21.33;;;10.30;1.00;;;;;;5047291;28;20556;-69
2023/04/21 05:10:03;;;;;;;29.97;22.60;;;10.30;1.00;;;;;;5048452;28;20628;-69
2023/04/21 05:12:33;;;;;;;29.47;22.67;;;10.30;1.00;;;;;;5046032;28;20218;-70
2023/04/21 05:15:00;;;;;;;28.17;20.97;;;10.40;1.00;;;;;;5029166;28;20187;-70
2023/04/21 05:17:29;;;;;;;27.77;20.73;;;10.50;1.00;;;;;;5028424;28;20551;-69
2023/04/21 05:19:57;;;;;;;30.67;21.93;;;10.50;1.00;;;;;;5043958;28;20577;-70
2023/04/21 05:22:24;;;;;;;28.67;21.80;;;10.50;1.00;;;;;;5046364;28;20204;-69
2023/04/21 05:24:52;;;;;;;31.97;22.53;;;10.60;1.00;;;;;;5035232;28;20192;-70
2023/04/21 05:27:19;;;;;;;29.40;20.90;;;10.60;1.00;;;;;;5046941;28;20226;-69
2023/04/21 05:29:46;;;;;;;29.40;21.93;;;10.60;1.00;;;;;;5039000;28;20218;-68
2023/04/21 05:32:13;;;;;;;27.93;21.20;;;10.70;1.00;;;;;;5050488;28;20691;-70
2023/04/21 05:34:40;;;;;;;28.90;21.43;;;10.70;1.00;;;;;;5046537;28;20294;-70
2023/04/21 05:37:10;;;;;;;28.07;21.03;;;10.70;1.00;;;;;;5048648;28;20302;-70
2023/04/21 05:39:37;;;;;;;27.77;20.33;;;10.70;1.00;;;;;;5048052;28;20604;-70
2023/04/21 05:42:05;;;;;;;25.80;20.87;;;10.80;1.00;;;;;;5050077;28;20199;-69
2023/04/21 05:44:32;;;;;;;27.77;21.40;;;10.80;1.00;;;;;;5030584;28;20915;-69
2023/04/21 05:46:59;;;;;;;26.80;20.77;;;10.80;1.00;;;;;;5047304;28;20196;-70
2023/04/21 05:49:26;;;;;;;27.43;21.20;;;10.80;1.00;;;;;;5050827;28;20325;-70
2023/04/21 05:51:53;;;;;;;26.80;20.83;;;10.80;1.00;;;;;;5046566;28;20191;-70
2023/04/21 05:54:20;;;;;;;29.83;21.63;;;10.80;1.00;;;;;;5047651;28;20294;-70
2023/04/21 05:56:47;;;;;;;31.67;21.93;;;10.80;1.00;;;;;;5009102;28;20200;-69
2023/04/21 05:59:15;;;;;;;26.30;20.77;;;10.90;1.00;;;;;;5035843;28;20270;-68
2023/04/21 06:01:42;;;;;;;27.70;20.63;;;10.90;1.00;;;;;;5013466;28;20222;-68
2023/04/21 06:04:09;;;;;;;30.93;22.50;;;10.90;1.00;;;;;;5047550;28;20814;-68
2023/04/21 06:06:37;;;;;;;29.53;22.10;;;11.00;1.00;;;;;;5045804;28;20261;-66
2023/04/21 06:09:04;;;;;;;28.47;20.90;;;11.00;1.00;;;;;;5034496;28;20237;-67
2023/04/21 06:11:32;;;;;;;29.53;20.93;;;11.00;1.00;;;;;;5049496;28;20238;-67
2023/04/21 06:14:00;;;;;;;28.33;21.47;;;11.10;1.00;;;;;;5046235;28;20207;-67
2023/04/21 06:16:28;;;;;;;29.90;22.07;;;11.10;1.00;;;;;;5049298;28;20198;-69
2023/04/21 06:18:57;;;;;;;28.37;21.43;;;11.20;1.00;;;;;;5046236;28;20195;-70
2023/04/21 06:21:24;;;;;;;28.67;20.77;;;11.20;1.00;;;;;;5009419;28;20275;-69
2023/04/21 06:23:51;;;;;;;24.77;20.13;;;11.30;1.00;;;;;;5038220;28;20195;-68
2023/04/21 06:26:18;;;;;;;27.50;20.10;;;11.30;1.00;;;;;;5030142;28;20306;-69
2023/04/21 06:28:45;;;;;;;28.37;21.57;;;11.30;1.00;;;;;;5033364;28;21028;-69
2023/04/21 06:31:15;;;;;;;24.00;19.80;;;11.30;1.00;;;;;;5030516;28;20194;-69
2023/04/21 06:33:42;;;;;;;25.20;19.20;;;11.40;1.00;;;;;;5045565;28;20458;-70
2023/04/21 06:36:09;;;;;;;25.87;20.43;;;11.40;1.00;;;;;;5041619;28;20192;-69
2023/04/21 06:38:38;;;;;;;28.27;21.40;;;11.50;1.00;;;;;;5046484;28;20203;-69
2023/04/21 06:41:05;;;;;;;29.30;20.83;;;11.40;1.00;;;;;;5046602;28;20218;-69
2023/04/21 06:43:32;;;;;;;25.00;20.30;;;11.50;1.00;;;;;;5046816;28;20989;-69
2023/04/21 06:45:59;;;;;;;28.40;20.97;;;11.50;1.00;;;;;;5048445;28;20242;-69
2023/04/21 06:48:28;;;;;;;26.57;20.47;;;11.60;1.00;;;;;;5055564;28;20199;-69
2023/04/21 06:50:55;;;;;;;26.27;20.47;;;11.60;1.00;;;;;;5049057;28;20277;-69
2023/04/21 06:53:22;;;;;;;25.87;19.33;;;11.70;1.00;;;;;;5050895;28;20810;-68
2023/04/21 06:55:49;;;;;;;26.93;19.40;;;11.90;1.00;;;;;;5036109;28;20183;-71
2023/04/21 06:58:16;;;;;;;26.37;19.07;;;12.40;1.00;;;;;;5050307;28;20538;-71
2023/04/21 07:00:46;;;;;;;26.73;20.93;;;12.60;1.00;;;;;;5053232;28;20187;-71
2023/04/21 07:03:14;;;;;;;30.27;19.70;;;12.60;1.00;;;;;;5034167;28;20888;-68
2023/04/21 07:05:41;;;;;;;26.60;19.80;;;12.70;1.00;;;;;;5054365;28;20198;-69
2023/04/21 07:08:08;;;;;;;23.83;19.10;;;12.90;1.00;;;;;;5065857;28;20203;-69
2023/04/21 07:10:35;;;;;;;24.53;18.93;;;12.90;1.00;;;;;;5070103;28;20192;-70
2023/04/21 07:13:02;;;;;;;23.53;18.70;;;12.90;1.00;;;;;;5064485;28;20210;-68
2023/04/21 07:15:29;;;;;;;27.47;19.17;;;12.80;1.00;;;;;;5049281;28;20669;-70
2023/04/21 07:17:57;;;;;;;23.27;18.20;;;12.90;1.00;;;;;;5071345;28;20634;-69
2023/04/21 07:20:25;;;;;;;28.70;19.73;;;13.00;1.00;;;;;;5067789;28;20217;-69
2023/04/21 07:22:51;;;;;;;26.17;18.80;;;12.80;1.00;;;;;;5063239;28;20192;-70
2023/04/21 07:25:19;;;;;;;26.00;18.83;;;12.70;1.00;;;;;;5038405;28;20249;-69
2023/04/21 07:27:46;;;;;;;24.97;19.40;;;12.50;1.00;;;;;;5067911;28;20249;-70
2023/04/21 07:30:13;;;;;;;27.07;19.40;;;12.60;1.00;;;;;;5066772;28;20201;-69
2023/04/21 07:32:40;;;;;;;24.10;19.53;;;12.50;1.00;;;;;;5068378;28;20841;-69
2023/04/21 07:35:07;;;;;;;28.13;19.97;;;12.50;1.00;;;;;;5047291;28;20194;-69
2023/04/21 07:37:34;;;;;;;31.97;19.40;;;12.60;1.00;;;;;;5067705;28;20214;-69
2023/04/21 07:40:01;;;;;;;27.77;19.00;;;12.70;1.00;;;;;;5052548;28;20191;-70
2023/04/21 07:42:28;;;;;;;25.57;19.27;;;12.80;1.00;;;;;;5067285;28;20225;-70
2023/04/21 07:44:56;;;;;;;27.13;19.33;;;13.10;1.00;;;;;;5067922;28;20195;-69
2023/04/21 07:47:23;;;;;;;23.80;18.87;;;13.20;1.00;;;;;;5067547;28;20191;-66
2023/04/21 07:49:50;;;;;;;24.93;19.13;;;13.20;1.00;;;;;;5046860;28;20714;-62
2023/04/21 07:52:17;;;;;;;24.70;19.37;;;13.50;1.00;;;;;;5068709;28;20285;-62
2023/04/21 07:54:44;;;;;;;26.87;18.80;;;13.50;1.00;;;;;;5066159;28;20281;-62
2023/04/21 07:57:11;;;;;;;27.87;19.87;;;13.60;1.00;;;;;;5054742;28;20709;-62
2023/04/21 07:59:38;;;;;;;27.00;19.10;;;13.90;1.00;;;;;;5050826;28;20225;-61
2023/04/21 08:02:05;;;;;;;23.40;17.90;;;14.20;1.00;;;;;;5066977;28;20702;-61
2023/04/21 08:04:32;;;;;;;23.83;18.25;;;14.70;1.00;;;;;;5063106;28;20240;-62
2023/04/21 08:07:00;;;;;;;24.45;17.85;;;15.20;1.00;;;;;;5064929;28;20244;-62
2023/04/21 08:09:27;;;;;;;21.80;17.20;;;15.50;1.00;;;;;;5062692;28;20259;-64
2023/04/21 08:11:56;;;;;;;22.90;18.42;;;15.50;1.00;;;;;;5055477;28;20278;-63
2023/04/21 08:14:23;;;;;;;24.13;18.20;;;15.60;1.00;;;;;;5064646;28;20215;-63
2023/04/21 08:16:49;;;;;;;24.13;18.30;;;15.40;1.00;;;;;;5064764;28;20583;-63
2023/04/21 08:19:17;;;;;;;23.75;17.52;;;15.00;1.00;;;;;;5061997;28;20210;-63
2023/04/21 08:21:44;;;;;;;20.90;17.48;;;14.60;1.00;;;;;;5062907;28;20226;-63
2023/04/21 08:24:11;;;;;;;23.45;18.48;;;14.30;1.00;;;;;;5045928;28;20210;-63
2023/04/21 08:26:38;;;;;;;22.50;17.88;;;14.10;1.00;;;;;;5048662;28;20222;-61
2023/04/21 08:29:08;;;;;;;23.50;18.42;;;14.00;1.00;;;;;;5064045;28;20225;-61
2023/04/21 08:31:36;;;;;;;23.20;18.20;;;13.90;1.00;;;;;;5063098;28;20753;-62
2023/04/21 08:34:03;;;;;;;22.10;18.60;;;14.00;1.00;;;;;;5046522;28;20276;-62
2023/04/21 08:36:30;;;;;;;26.47;20.13;;;14.00;1.00;;;;;;5061632;28;20195;-62
2023/04/21 08:38:58;;;;;;;22.23;17.40;;;14.00;1.00;;;;;;5065178;28;20198;-62
2023/04/21 08:41:26;;;;;;;25.77;18.33;;;14.20;1.00;;;;;;5048148;28;20206;-61
2023/04/21 08:43:53;;;;;;;23.48;17.58;;;14.30;1.00;;;;;;5063300;28;20209;-62
2023/04/21 08:46:21;;;;;;;20.97;18.07;;;14.20;1.00;;;;;;5064798;28;20674;-62
2023/04/21 08:48:48;;;;;;;25.67;17.60;;;14.40;1.00;;;;;;5059813;28;20681;-62
2023/04/21 08:51:26;;;;;;;23.65;18.30;;;14.60;1.00;;;;;;5064574;28;20811;-61
2023/04/21 08:53:57;;;;;;;26.33;18.30;;;14.90;1.00;;;;;;5064325;28;20234;-62
2023/04/21 08:56:25;;;;;;;25.98;17.30;;;15.10;1.00;;;;;;5063630;28;20191;-62
2023/04/21 08:58:52;;;;;;;19.73;17.25;;;15.40;1.00;;;;;;5065209;28;20823;-61
2023/04/21 09:01:19;;;;;;;26.10;19.40;;;15.40;1.00;;;;;;5044681;28;20207;-62
2023/04/21 09:03:46;;;;;;;24.48;17.80;;;15.20;1.00;;;;;;5043213;28;20239;-62
2023/04/21 09:06:14;;;;;;;20.95;17.38;;;15.10;1.00;;;;;;5057648;28;20195;-64
2023/04/21 09:08:42;;;;;;;24.60;19.08;;;15.50;1.00;;;;;;5049683;28;20231;-62
2023/04/21 09:11:13;;;;;;;21.38;16.73;;;15.50;1.00;;;;;;5043083;28;20221;-62
2023/04/21 09:13:42;;;;;;;22.83;18.27;;;15.60;1.00;;;;;;5061773;28;20302;-62
2023/04/21 09:16:19;;;;;;;21.73;17.42;;;15.60;1.00;;;;;;5062911;28;20186;-62
2023/04/21 09:18:47;;;;;;;31.35;17.65;;;15.80;1.00;;;;;;5043502;28;20213;-62
2023/04/21 09:21:15;;;;;;;22.88;18.00;;;15.90;1.00;;;;;;5062164;28;20191;-63
2023/04/21 09:23:47;;;;;;;23.63;17.65;;;16.10;1.00;;;;;;5061561;28;20248;-63
2023/04/21 09:26:16;;;;;;;21.30;16.23;;;16.20;1.00;;;;;;5060115;28;20245;-62
2023/04/21 09:28:44;;;;;;;23.65;17.25;;;16.40;1.00;;;;;;5046956;28;20566;-62
2023/04/21 09:31:15;;;;;;;20.55;16.85;;;16.50;1.00;;;;;;5062520;28;20796;-62
2023/04/21 09:33:51;;;;;;;24.90;17.70;;;16.20;1.00;;;;;;5056078;28;20214;-62
2023/04/21 09:36:24;;;;;;;23.77;18.00;;;16.10;1.00;;;;;;5059595;28;20190;-62
2023/04/21 09:38:58;;;;;;;23.48;17.30;;;15.50;1.00;;;;;;5044416;28;20500;-62
2023/04/21 09:41:45;;;;;;;20.10;17.23;;;15.40;1.00;;;;;;5060836;28;20633;-63
2023/04/21 09:44:12;;;;;;;21.45;18.38;;;15.30;1.00;;;;;;5045729;28;20260;-63
2023/04/21 09:46:43;;;;;;;24.10;16.65;;;15.40;1.00;;;;;;5043625;28;20217;-64
2023/04/21 09:49:12;;;;;;;21.88;17.42;;;15.40;1.00;;;;;;5058288;28;20547;-64
2023/04/21 09:51:40;;;;;;;21.95;17.92;;;15.10;1.00;;;;;;5057834;28;20265;-64
2023/04/21 09:54:16;;;;;;;23.35;17.67;;;15.20;1.00;;;;;;5061927;28;20871;-63
2023/04/21 09:57:00;;;;;;;25.92;18.80;;;15.10;1.00;;;;;;5059113;28;20201;-63
2023/04/21 09:59:43;;;;;;;22.95;18.63;;;15.20;1.00;;;;;;5060615;28;20191;-63
2023/04/21 10:02:11;;;;;;;22.75;18.23;;;15.30;1.00;;;;;;5058857;28;20211;-63
2023/04/21 10:04:41;;;;;;;19.85;17.25;;;15.50;1.00;;;;;;5058528;28;20187;-62
2023/04/21 10:07:10;;;;;;;24.63;18.38;;;15.60;1.00;;;;;;5058002;28;20241;-62
2023/04/21 10:09:47;;;;;;;21.05;16.60;;;16.40;1.00;;;;;;5059029;28;20249;-62
2023/04/21 10:12:14;;;;;;;21.55;16.83;;;17.20;1.00;;;;;;5060005;28;20220;-60
2023/04/21 10:14:41;;;;;;;22.85;16.98;;;17.70;1.00;;;;;;5058177;28;20199;-62
2023/04/21 10:17:09;;;;;;;22.58;17.52;;;17.70;1.00;;;;;;5062319;28;20274;-62
2023/04/21 10:19:56;;;;;;;22.50;16.75;;;18.50;1.00;;;;;;5040392;28;20186;-60
2023/04/21 10:22:31;;;;;;;21.30;16.33;;;18.60;1.00;;;;;;5040043;28;20199;-60
2023/04/21 10:25:00;;;;;;;19.50;16.38;;;18.80;1.00;;;;;;5042507;28;20285;-60
2023/04/21 10:27:42;;;;;;;20.45;15.32;;;18.70;1.00;;;;;;5042770;28;20276;-60
2023/04/21 10:30:24;;;;;;;21.98;15.52;;;18.50;1.00;;;;;;5057406;28;20194;-61
2023/04/21 10:33:03;;;;;;;17.77;15.23;;;18.00;1.00;;;;;;5057439;28;20654;-63
2023/04/21 10:36:00;;;;;;;19.77;13.90;;;18.10;1.00;;;;;;5060114;28;20225;-63
2023/04/21 10:38:41;;;;;;;17.33;14.15;;;18.80;1.00;;;;;;5060066;28;20191;-61
2023/04/21 10:41:27;;;;;;;16.45;14.32;;;18.60;1.00;;;;;;5044379;28;20195;-61
2023/04/21 10:44:14;;;;;;;18.35;14.85;;;17.60;1.00;;;;;;5062772;28;20183;-63
2023/04/21 10:46:50;;;;;;;19.15;15.40;;;16.70;1.00;;;;;;5060531;28;20262;-63
2023/04/21 10:49:31;;;;;;;19.23;14.35;;;16.70;1.00;;;;;;5058418;28;20618;-63
2023/04/21 10:51:58;;;;;;;23.55;15.40;;;16.60;1.00;;;;;;5059132;28;20278;-62
2023/04/21 10:54:25;;;;;;;19.10;15.85;;;16.60;1.00;;;;;;5058031;28;20673;-63
2023/04/21 10:56:55;;;;;;;19.35;15.38;;;16.70;1.00;;;;;;5058945;28;20198;-62
2023/04/21 10:59:22;;;;;;;20.55;15.27;;;16.90;1.00;;;;;;5057798;28;20199;-63
2023/04/21 11:01:49;;;;;;;19.65;15.57;;;16.90;1.00;;;;;;5059897;28;20531;-63
2023/04/21 11:04:19;;;;;;;18.73;13.75;;;17.00;1.00;;;;;;5062963;28;20239;-64
2023/04/21 11:07:07;;;;;;;18.60;15.05;;;16.80;1.00;;;;;;5045215;28;20241;-62
2023/04/21 11:09:36;;;;;;;18.55;14.18;;;16.80;1.00;;;;;;5063772;28;20225;-62
2023/04/21 11:12:11;;;;;;;16.27;14.30;;;16.90;1.00;;;;;;5061024;28;20199;-62
2023/04/21 11:14:40;;;;;;;20.25;14.77;;;16.90;1.00;;;;;;5064415;28;20213;-62
2023/04/21 11:17:26;;;;;;;17.20;14.15;;;17.20;1.00;;;;;;5061519;28;20264;-62
2023/04/21 11:19:55;;;;;;;17.33;14.77;;;17.20;1.00;;;;;;5062530;28;20198;-61
2023/04/21 11:22:25;;;;;;;21.58;15.40;;;17.30;1.00;;;;;;5063024;28;20662;-63
2023/04/21 11:24:56;;;;;;;19.38;15.57;;;17.20;1.00;;;;;;5062030;28;20226;-62
2023/04/21 11:27:26;;;;;;;17.50;15.23;;;17.10;1.00;;;;;;5064789;28;20209;-62
2023/04/21 11:29:53;;;;;;;19.92;15.68;;;17.20;1.00;;;;;;5063895;28;20661;-63
2023/04/21 11:32:20;;;;;;;18.65;15.00;;;17.70;1.00;;;;;;5060566;28;20281;-63
2023/04/21 11:34:47;;;;;;;17.65;14.05;;;18.00;1.00;;;;;;5059906;28;20215;-62
2023/04/21 11:37:19;;;;;;;18.83;14.77;;;18.00;1.00;;;;;;5057557;28;20191;-62
2023/04/21 11:39:46;;;;;;;17.65;13.55;;;18.10;1.00;;;;;;5059927;28;20252;-62
2023/04/21 11:42:21;;;;;;;17.67;12.93;;;18.50;1.00;;;;;;5062905;28;20304;-62
2023/04/21 11:44:48;;;;;;;18.88;13.05;;;18.70;1.00;;;;;;5046145;28;20245;-62
2023/04/21 11:47:21;;;;;;;15.30;12.82;;;18.60;1.00;;;;;;5044835;28;20203;-61
2023/04/21 11:49:55;;;;;;;15.20;12.38;;;18.80;1.00;;;;;;5061808;28;20680;-63
2023/04/21 11:52:33;;;;;;;17.00;12.43;;;19.20;1.00;;;;;;5047076;28;20203;-59
2023/04/21 11:55:02;;;;;;;16.73;13.05;;;19.60;1.00;;;;;;5058776;28;20293;-59
2023/04/21 11:57:31;;;;;;;16.83;11.65;;;19.80;1.00;;;;;;5062666;28;20226;-61
2023/04/21 12:00:00;;;;;;;19.45;12.27;;;19.90;1.00;;;;;;5062769;28;20194;-60
2023/04/21 12:02:31;;;;;;;14.60;11.30;;;19.30;1.00;;;;;;5063410;28;20360;-63
2023/04/21 12:05:12;;;;;;;14.05;12.48;;;19.10;1.00;;;;;;5043630;28;20186;-63
2023/04/21 12:07:46;;;;;;;16.15;11.50;;;19.10;1.00;;;;;;5061270;28;20314;-60
2023/04/21 12:10:16;;;;;;;14.95;10.45;;;19.30;1.00;;;;;;5061400;28;20204;-60
2023/04/21 12:12:44;;;;;;;13.40;11.05;;;19.50;1.00;;;;;;5058317;28;20221;-61
2023/04/21 12:15:20;;;;;;;15.65;11.00;;;19.40;1.00;;;;;;5046285;28;20203;-62
2023/04/21 12:17:49;;;;;;;13.02;11.07;;;19.50;1.00;;;;;;5040843;28;20194;-62
2023/04/21 12:20:19;;;;;;;14.85;11.38;;;19.90;1.00;;;;;;5057960;28;20198;-61
2023/04/21 12:22:46;;;;;;;20.08;12.65;;;19.60;1.00;;;;;;5063115;28;20199;-61
2023/04/21 12:25:13;;;;;;;17.70;11.43;;;18.80;1.00;;;;;;5061054;28;20287;-60
2023/04/21 12:27:51;;;;;;;14.10;11.68;;;19.10;1.00;;;;;;5062546;28;20207;-60
2023/04/21 12:30:19;;;;;;;17.27;12.20;;;19.50;1.00;;;;;;5062214;28;20214;-60
2023/04/21 12:32:47;;;;;;;16.70;14.07;;;19.30;1.00;;;;;;5054429;28;20249;-60
2023/04/21 12:35:14;;;;;;;16.70;13.75;;;18.90;1.00;;;;;;5060994;28;20210;-60
2023/04/21 12:37:41;;;;;;;18.90;13.38;;;18.60;1.00;;;;;;5060013;28;20213;-60
2023/04/21 12:40:08;;;;;;;18.75;14.48;;;18.80;1.00;;;;;;5056750;28;20211;-60
2023/04/21 12:42:36;;;;;;;17.00;14.45;;;18.50;1.00;;;;;;5061644;28;20202;-60
2023/04/21 12:45:05;;;;;;;18.23;15.85;;;18.60;1.00;;;;;;5059725;28;20191;-61
2023/04/21 12:47:33;;;;;;;19.42;14.50;;;18.70;1.00;;;;;;5044917;28;20199;-61
2023/04/21 12:50:00;;;;;;;21.45;14.65;;;18.60;1.00;;;;;;5039561;28;20199;-61